sensor_id;sensor_type;location;lat;lon;timestamp;P1;durP1;ratioP1;P2;durP2;ratioP2
11247;SDS011;5681;53.316;13.950;2022-07-11T00:00:43;12.63;;;2.17;;
11247;SDS011;5681;53.316;13.950;2022-07-11T00:03:10;11.25;;;1.90;;
11247;SDS011;5681;53.316;13.950;2022-07-11T00:05:36;10.02;;;2.20;;
11247;SDS011;5681;53.316;13.950;2022-07-11T00:08:03;11.02;;;2.00;;
11247;SDS011;5681;53.316;13.950;2022-07-11T00:10:31;6.75;;;1.73;;
11247;SDS011;5681;53.316;13.950;2022-07-11T00:12:58;9.15;;;2.42;;
11247;SDS011;5681;53.316;13.950;2022-07-11T00:15:25;9.68;;;1.88;;
11247;SDS011;5681;53.316;13.950;2022-07-11T00:17:52;8.50;;;2.15;;
11247;SDS011;5681;53.316;13.950;2022-07-11T00:20:18;8.65;;;1.88;;
11247;SDS011;5681;53.316;13.950;2022-07-11T00:22:44;9.63;;;2.10;;
11247;SDS011;5681;53.316;13.950;2022-07-11T00:25:11;8.48;;;2.05;;
11247;SDS011;5681;53.316;13.950;2022-07-11T00:27:37;10.50;;;2.25;;
11247;SDS011;5681;53.316;13.950;2022-07-11T00:30:04;6.68;;;1.92;;
11247;SDS011;5681;53.316;13.950;2022-07-11T00:32:32;9.10;;;1.75;;
11247;SDS011;5681;53.316;13.950;2022-07-11T00:34:59;10.35;;;2.05;;
11247;SDS011;5681;53.316;13.950;2022-07-11T00:37:26;8.23;;;2.00;;
11247;SDS011;5681;53.316;13.950;2022-07-11T00:39:53;8.43;;;1.98;;
11247;SDS011;5681;53.316;13.950;2022-07-11T00:42:19;6.78;;;2.13;;
11247;SDS011;5681;53.316;13.950;2022-07-11T00:44:45;9.18;;;1.90;;
11247;SDS011;5681;53.316;13.950;2022-07-11T00:47:12;7.95;;;2.30;;
11247;SDS011;5681;53.316;13.950;2022-07-11T00:49:39;8.60;;;2.10;;
11247;SDS011;5681;53.316;13.950;2022-07-11T00:52:06;10.85;;;1.98;;
11247;SDS011;5681;53.316;13.950;2022-07-11T00:54:32;11.55;;;2.47;;
11247;SDS011;5681;53.316;13.950;2022-07-11T00:56:59;11.35;;;2.03;;
11247;SDS011;5681;53.316;13.950;2022-07-11T00:59:25;9.18;;;2.03;;
11247;SDS011;5681;53.316;13.950;2022-07-11T01:01:53;11.05;;;1.95;;
11247;SDS011;5681;53.316;13.950;2022-07-11T01:04:19;9.18;;;2.20;;
11247;SDS011;5681;53.316;13.950;2022-07-11T01:06:47;11.65;;;2.13;;
11247;SDS011;5681;53.316;13.950;2022-07-11T01:09:13;9.13;;;1.98;;
11247;SDS011;5681;53.316;13.950;2022-07-11T01:11:39;9.63;;;2.20;;
11247;SDS011;5681;53.316;13.950;2022-07-11T01:14:06;11.15;;;2.30;;
11247;SDS011;5681;53.316;13.950;2022-07-11T01:16:32;9.38;;;2.28;;
11247;SDS011;5681;53.316;13.950;2022-07-11T01:18:58;7.15;;;1.80;;
11247;SDS011;5681;53.316;13.950;2022-07-11T01:21:26;9.98;;;2.15;;
11247;SDS011;5681;53.316;13.950;2022-07-11T01:23:57;7.72;;;2.00;;
11247;SDS011;5681;53.316;13.950;2022-07-11T01:26:24;8.43;;;2.53;;
11247;SDS011;5681;53.316;13.950;2022-07-11T01:28:52;11.05;;;2.33;;
11247;SDS011;5681;53.316;13.950;2022-07-11T01:31:20;9.15;;;2.10;;
11247;SDS011;5681;53.316;13.950;2022-07-11T01:33:47;12.98;;;2.60;;
11247;SDS011;5681;53.316;13.950;2022-07-11T01:36:13;8.48;;;1.98;;
11247;SDS011;5681;53.316;13.950;2022-07-11T01:38:39;10.07;;;2.28;;
11247;SDS011;5681;53.316;13.950;2022-07-11T01:41:07;8.88;;;1.95;;
11247;SDS011;5681;53.316;13.950;2022-07-11T01:43:33;9.13;;;2.45;;
11247;SDS011;5681;53.316;13.950;2022-07-11T01:46:00;10.57;;;2.05;;
11247;SDS011;5681;53.316;13.950;2022-07-11T01:48:26;10.55;;;2.20;;
11247;SDS011;5681;53.316;13.950;2022-07-11T01:50:53;10.82;;;2.38;;
11247;SDS011;5681;53.316;13.950;2022-07-11T01:53:19;8.23;;;2.22;;
11247;SDS011;5681;53.316;13.950;2022-07-11T01:55:46;10.43;;;2.28;;
11247;SDS011;5681;53.316;13.950;2022-07-11T01:58:13;11.52;;;2.72;;
11247;SDS011;5681;53.316;13.950;2022-07-11T02:00:40;7.97;;;2.10;;
11247;SDS011;5681;53.316;13.950;2022-07-11T02:03:06;8.23;;;2.33;;
11247;SDS011;5681;53.316;13.950;2022-07-11T02:05:32;8.70;;;2.17;;
11247;SDS011;5681;53.316;13.950;2022-07-11T02:07:59;10.10;;;2.50;;
11247;SDS011;5681;53.316;13.950;2022-07-11T02:10:38;7.13;;;2.17;;
11247;SDS011;5681;53.316;13.950;2022-07-11T02:13:05;12.52;;;2.40;;
11247;SDS011;5681;53.316;13.950;2022-07-11T02:15:32;12.07;;;2.20;;
11247;SDS011;5681;53.316;13.950;2022-07-11T02:17:59;8.95;;;2.42;;
11247;SDS011;5681;53.316;13.950;2022-07-11T02:20:25;8.48;;;2.55;;
11247;SDS011;5681;53.316;13.950;2022-07-11T02:22:51;8.20;;;2.28;;
11247;SDS011;5681;53.316;13.950;2022-07-11T02:25:18;11.55;;;2.65;;
11247;SDS011;5681;53.316;13.950;2022-07-11T02:27:46;11.65;;;2.00;;
11247;SDS011;5681;53.316;13.950;2022-07-11T02:30:12;8.93;;;2.45;;
11247;SDS011;5681;53.316;13.950;2022-07-11T02:32:40;8.05;;;1.88;;
11247;SDS011;5681;53.316;13.950;2022-07-11T02:35:06;11.20;;;2.50;;
11247;SDS011;5681;53.316;13.950;2022-07-11T02:37:33;13.27;;;2.47;;
11247;SDS011;5681;53.316;13.950;2022-07-11T02:39:59;11.93;;;2.55;;
11247;SDS011;5681;53.316;13.950;2022-07-11T02:42:25;13.25;;;2.28;;
11247;SDS011;5681;53.316;13.950;2022-07-11T02:44:52;9.73;;;1.92;;
11247;SDS011;5681;53.316;13.950;2022-07-11T02:47:18;7.25;;;1.77;;
11247;SDS011;5681;53.316;13.950;2022-07-11T02:49:46;10.85;;;2.60;;
11247;SDS011;5681;53.316;13.950;2022-07-11T02:52:13;10.57;;;2.30;;
11247;SDS011;5681;53.316;13.950;2022-07-11T02:54:40;10.02;;;2.45;;
11247;SDS011;5681;53.316;13.950;2022-07-11T02:57:06;11.73;;;2.80;;
11247;SDS011;5681;53.316;13.950;2022-07-11T02:59:32;8.05;;;2.22;;
11247;SDS011;5681;53.316;13.950;2022-07-11T03:01:59;11.10;;;2.63;;
11247;SDS011;5681;53.316;13.950;2022-07-11T03:04:27;13.65;;;2.80;;
11247;SDS011;5681;53.316;13.950;2022-07-11T03:06:55;8.85;;;2.20;;
11247;SDS011;5681;53.316;13.950;2022-07-11T03:09:22;12.70;;;2.25;;
11247;SDS011;5681;53.316;13.950;2022-07-11T03:11:49;8.63;;;2.42;;
11247;SDS011;5681;53.316;13.950;2022-07-11T03:14:15;10.85;;;2.30;;
11247;SDS011;5681;53.316;13.950;2022-07-11T03:16:42;7.55;;;2.50;;
11247;SDS011;5681;53.316;13.950;2022-07-11T03:19:08;9.27;;;2.28;;
11247;SDS011;5681;53.316;13.950;2022-07-11T03:21:35;10.70;;;2.65;;
11247;SDS011;5681;53.316;13.950;2022-07-11T03:24:02;11.27;;;2.20;;
11247;SDS011;5681;53.316;13.950;2022-07-11T03:26:29;10.73;;;2.65;;
11247;SDS011;5681;53.316;13.950;2022-07-11T03:28:56;6.93;;;2.05;;
11247;SDS011;5681;53.316;13.950;2022-07-11T03:31:22;11.88;;;2.35;;
11247;SDS011;5681;53.316;13.950;2022-07-11T03:33:48;14.38;;;2.40;;
11247;SDS011;5681;53.316;13.950;2022-07-11T03:36:15;13.15;;;2.38;;
11247;SDS011;5681;53.316;13.950;2022-07-11T03:38:41;11.07;;;2.45;;
11247;SDS011;5681;53.316;13.950;2022-07-11T03:41:09;12.27;;;2.40;;
11247;SDS011;5681;53.316;13.950;2022-07-11T03:43:35;7.15;;;2.05;;
11247;SDS011;5681;53.316;13.950;2022-07-11T03:46:01;9.95;;;2.67;;
11247;SDS011;5681;53.316;13.950;2022-07-11T03:48:28;12.95;;;2.60;;
11247;SDS011;5681;53.316;13.950;2022-07-11T03:50:54;12.13;;;2.60;;
11247;SDS011;5681;53.316;13.950;2022-07-11T03:53:20;9.80;;;2.10;;
11247;SDS011;5681;53.316;13.950;2022-07-11T03:55:47;13.05;;;2.78;;
11247;SDS011;5681;53.316;13.950;2022-07-11T03:58:15;9.32;;;2.60;;
11247;SDS011;5681;53.316;13.950;2022-07-11T04:00:41;12.15;;;2.55;;
11247;SDS011;5681;53.316;13.950;2022-07-11T04:03:07;14.43;;;2.58;;
11247;SDS011;5681;53.316;13.950;2022-07-11T04:05:34;10.63;;;2.35;;
11247;SDS011;5681;53.316;13.950;2022-07-11T04:08:01;13.57;;;2.35;;
11247;SDS011;5681;53.316;13.950;2022-07-11T04:10:27;9.23;;;2.42;;
11247;SDS011;5681;53.316;13.950;2022-07-11T04:12:54;12.85;;;2.47;;
11247;SDS011;5681;53.316;13.950;2022-07-11T04:15:21;12.68;;;2.60;;
11247;SDS011;5681;53.316;13.950;2022-07-11T04:17:48;12.27;;;2.42;;
11247;SDS011;5681;53.316;13.950;2022-07-11T04:20:14;10.73;;;2.60;;
11247;SDS011;5681;53.316;13.950;2022-07-11T04:22:41;12.25;;;2.22;;
11247;SDS011;5681;53.316;13.950;2022-07-11T04:25:07;13.80;;;2.42;;
11247;SDS011;5681;53.316;13.950;2022-07-11T04:27:34;14.82;;;3.10;;
11247;SDS011;5681;53.316;13.950;2022-07-11T04:30:00;11.85;;;2.75;;
11247;SDS011;5681;53.316;13.950;2022-07-11T04:32:28;13.98;;;2.63;;
11247;SDS011;5681;53.316;13.950;2022-07-11T04:34:54;15.73;;;2.90;;
11247;SDS011;5681;53.316;13.950;2022-07-11T04:37:21;14.38;;;2.63;;
11247;SDS011;5681;53.316;13.950;2022-07-11T04:39:47;11.25;;;2.40;;
11247;SDS011;5681;53.316;13.950;2022-07-11T04:42:13;11.30;;;2.60;;
11247;SDS011;5681;53.316;13.950;2022-07-11T04:44:40;13.98;;;2.60;;
11247;SDS011;5681;53.316;13.950;2022-07-11T04:47:07;11.23;;;2.50;;
11247;SDS011;5681;53.316;13.950;2022-07-11T04:49:35;11.55;;;2.83;;
11247;SDS011;5681;53.316;13.950;2022-07-11T04:52:02;13.18;;;2.70;;
11247;SDS011;5681;53.316;13.950;2022-07-11T04:54:29;10.50;;;2.00;;
11247;SDS011;5681;53.316;13.950;2022-07-11T04:56:56;10.25;;;2.40;;
11247;SDS011;5681;53.316;13.950;2022-07-11T04:59:22;11.13;;;2.28;;
11247;SDS011;5681;53.316;13.950;2022-07-11T05:01:50;12.85;;;2.55;;
11247;SDS011;5681;53.316;13.950;2022-07-11T05:04:16;7.53;;;2.42;;
11247;SDS011;5681;53.316;13.950;2022-07-11T05:06:44;8.23;;;2.35;;
11247;SDS011;5681;53.316;13.950;2022-07-11T05:09:10;19.70;;;2.53;;
11247;SDS011;5681;53.316;13.950;2022-07-11T05:11:36;9.23;;;2.38;;
11247;SDS011;5681;53.316;13.950;2022-07-11T05:14:03;9.45;;;2.53;;
11247;SDS011;5681;53.316;13.950;2022-07-11T05:16:29;9.63;;;2.50;;
11247;SDS011;5681;53.316;13.950;2022-07-11T05:18:55;10.68;;;2.47;;
11247;SDS011;5681;53.316;13.950;2022-07-11T05:21:22;9.63;;;2.30;;
11247;SDS011;5681;53.316;13.950;2022-07-11T05:23:50;12.77;;;2.65;;
11247;SDS011;5681;53.316;13.950;2022-07-11T05:26:16;12.40;;;2.22;;
11247;SDS011;5681;53.316;13.950;2022-07-11T05:28:43;10.00;;;2.38;;
11247;SDS011;5681;53.316;13.950;2022-07-11T05:31:09;7.65;;;2.20;;
11247;SDS011;5681;53.316;13.950;2022-07-11T05:33:35;11.23;;;2.33;;
11247;SDS011;5681;53.316;13.950;2022-07-11T05:36:02;9.43;;;2.05;;
11247;SDS011;5681;53.316;13.950;2022-07-11T05:38:29;8.23;;;1.70;;
11247;SDS011;5681;53.316;13.950;2022-07-11T05:40:56;8.48;;;2.22;;
11247;SDS011;5681;53.316;13.950;2022-07-11T05:43:24;8.13;;;1.85;;
11247;SDS011;5681;53.316;13.950;2022-07-11T05:45:51;7.03;;;1.90;;
11247;SDS011;5681;53.316;13.950;2022-07-11T05:48:17;9.80;;;1.88;;
11247;SDS011;5681;53.316;13.950;2022-07-11T05:50:44;6.93;;;1.73;;
11247;SDS011;5681;53.316;13.950;2022-07-11T05:53:10;10.60;;;2.00;;
11247;SDS011;5681;53.316;13.950;2022-07-11T05:55:38;7.28;;;1.80;;
11247;SDS011;5681;53.316;13.950;2022-07-11T05:58:06;6.57;;;1.70;;
11247;SDS011;5681;53.316;13.950;2022-07-11T06:00:32;7.47;;;1.88;;
11247;SDS011;5681;53.316;13.950;2022-07-11T06:02:59;8.25;;;2.00;;
11247;SDS011;5681;53.316;13.950;2022-07-11T06:05:25;7.25;;;1.73;;
11247;SDS011;5681;53.316;13.950;2022-07-11T06:07:51;10.23;;;1.50;;
11247;SDS011;5681;53.316;13.950;2022-07-11T06:10:35;5.85;;;1.40;;
11247;SDS011;5681;53.316;13.950;2022-07-11T06:13:03;8.32;;;2.20;;
11247;SDS011;5681;53.316;13.950;2022-07-11T06:15:31;6.03;;;1.70;;
11247;SDS011;5681;53.316;13.950;2022-07-11T06:17:57;6.05;;;1.50;;
11247;SDS011;5681;53.316;13.950;2022-07-11T06:20:23;5.93;;;1.55;;
11247;SDS011;5681;53.316;13.950;2022-07-11T06:22:50;6.80;;;1.45;;
11247;SDS011;5681;53.316;13.950;2022-07-11T06:25:18;8.13;;;1.60;;
11247;SDS011;5681;53.316;13.950;2022-07-11T06:27:44;4.38;;;1.55;;
11247;SDS011;5681;53.316;13.950;2022-07-11T06:30:11;7.70;;;1.60;;
11247;SDS011;5681;53.316;13.950;2022-07-11T06:32:39;7.32;;;1.45;;
11247;SDS011;5681;53.316;13.950;2022-07-11T06:35:06;6.40;;;1.40;;
11247;SDS011;5681;53.316;13.950;2022-07-11T06:37:33;8.35;;;1.35;;
11247;SDS011;5681;53.316;13.950;2022-07-11T06:40:00;3.17;;;1.30;;
11247;SDS011;5681;53.316;13.950;2022-07-11T06:42:26;6.82;;;1.65;;
11247;SDS011;5681;53.316;13.950;2022-07-11T06:44:53;10.77;;;1.80;;
11247;SDS011;5681;53.316;13.950;2022-07-11T06:47:19;3.92;;;1.35;;
11247;SDS011;5681;53.316;13.950;2022-07-11T06:49:47;8.43;;;1.85;;
11247;SDS011;5681;53.316;13.950;2022-07-11T06:52:13;4.47;;;1.30;;
11247;SDS011;5681;53.316;13.950;2022-07-11T06:54:40;4.20;;;1.05;;
11247;SDS011;5681;53.316;13.950;2022-07-11T06:57:06;7.07;;;1.50;;
11247;SDS011;5681;53.316;13.950;2022-07-11T06:59:33;4.88;;;1.20;;
11247;SDS011;5681;53.316;13.950;2022-07-11T07:01:59;3.70;;;1.05;;
11247;SDS011;5681;53.316;13.950;2022-07-11T07:04:26;4.70;;;1.10;;
11247;SDS011;5681;53.316;13.950;2022-07-11T07:06:53;6.40;;;1.20;;
11247;SDS011;5681;53.316;13.950;2022-07-11T07:09:20;6.30;;;1.50;;
11247;SDS011;5681;53.316;13.950;2022-07-11T07:11:46;7.75;;;1.38;;
11247;SDS011;5681;53.316;13.950;2022-07-11T07:14:12;2.55;;;0.93;;
11247;SDS011;5681;53.316;13.950;2022-07-11T07:16:39;4.30;;;1.00;;
11247;SDS011;5681;53.316;13.950;2022-07-11T07:19:05;5.32;;;0.88;;
11247;SDS011;5681;53.316;13.950;2022-07-11T07:21:31;4.30;;;1.10;;
11247;SDS011;5681;53.316;13.950;2022-07-11T07:23:59;4.70;;;1.05;;
11247;SDS011;5681;53.316;13.950;2022-07-11T07:26:25;5.65;;;1.13;;
11247;SDS011;5681;53.316;13.950;2022-07-11T07:28:52;5.30;;;1.00;;
11247;SDS011;5681;53.316;13.950;2022-07-11T07:31:18;3.35;;;0.98;;
11247;SDS011;5681;53.316;13.950;2022-07-11T07:33:45;4.03;;;1.00;;
11247;SDS011;5681;53.316;13.950;2022-07-11T07:36:11;4.80;;;1.00;;
11247;SDS011;5681;53.316;13.950;2022-07-11T07:38:37;4.63;;;1.02;;
11247;SDS011;5681;53.316;13.950;2022-07-11T07:41:05;5.13;;;1.08;;
11247;SDS011;5681;53.316;13.950;2022-07-11T07:43:31;3.20;;;1.27;;
11247;SDS011;5681;53.316;13.950;2022-07-11T07:45:58;4.53;;;1.10;;
11247;SDS011;5681;53.316;13.950;2022-07-11T07:48:24;4.88;;;1.23;;
11247;SDS011;5681;53.316;13.950;2022-07-11T07:50:50;2.92;;;0.88;;
11247;SDS011;5681;53.316;13.950;2022-07-11T07:53:18;4.70;;;1.13;;
11247;SDS011;5681;53.316;13.950;2022-07-11T07:55:45;5.38;;;1.20;;
11247;SDS011;5681;53.316;13.950;2022-07-11T07:58:12;4.40;;;1.00;;
11247;SDS011;5681;53.316;13.950;2022-07-11T08:00:39;3.13;;;0.98;;
11247;SDS011;5681;53.316;13.950;2022-07-11T08:03:23;5.07;;;1.10;;
11247;SDS011;5681;53.316;13.950;2022-07-11T08:05:49;3.03;;;0.90;;
11247;SDS011;5681;53.316;13.950;2022-07-11T08:08:15;3.75;;;1.00;;
11247;SDS011;5681;53.316;13.950;2022-07-11T08:10:42;3.83;;;0.90;;
11247;SDS011;5681;53.316;13.950;2022-07-11T08:13:08;4.47;;;1.52;;
11247;SDS011;5681;53.316;13.950;2022-07-11T08:15:36;4.47;;;1.20;;
11247;SDS011;5681;53.316;13.950;2022-07-11T08:18:02;5.10;;;1.30;;
11247;SDS011;5681;53.316;13.950;2022-07-11T08:20:28;8.77;;;1.30;;
11247;SDS011;5681;53.316;13.950;2022-07-11T08:22:58;5.22;;;1.25;;
11247;SDS011;5681;53.316;13.950;2022-07-11T08:25:25;6.05;;;1.10;;
11247;SDS011;5681;53.316;13.950;2022-07-11T08:27:51;3.42;;;0.95;;
11247;SDS011;5681;53.316;13.950;2022-07-11T08:30:18;3.60;;;0.93;;
11247;SDS011;5681;53.316;13.950;2022-07-11T08:32:45;5.45;;;1.00;;
11247;SDS011;5681;53.316;13.950;2022-07-11T08:35:12;4.00;;;1.00;;
11247;SDS011;5681;53.316;13.950;2022-07-11T08:37:39;1.50;;;0.90;;
11247;SDS011;5681;53.316;13.950;2022-07-11T08:40:05;5.30;;;1.05;;
11247;SDS011;5681;53.316;13.950;2022-07-11T08:42:34;2.72;;;0.95;;
11247;SDS011;5681;53.316;13.950;2022-07-11T08:45:10;4.32;;;1.20;;
11247;SDS011;5681;53.316;13.950;2022-07-11T08:47:36;4.00;;;0.90;;
11247;SDS011;5681;53.316;13.950;2022-07-11T08:50:06;4.03;;;0.95;;
11247;SDS011;5681;53.316;13.950;2022-07-11T08:52:33;6.68;;;1.27;;
11247;SDS011;5681;53.316;13.950;2022-07-11T08:54:59;3.80;;;1.27;;
11247;SDS011;5681;53.316;13.950;2022-07-11T08:57:30;7.43;;;1.27;;
11247;SDS011;5681;53.316;13.950;2022-07-11T08:59:57;4.35;;;1.30;;
11247;SDS011;5681;53.316;13.950;2022-07-11T09:02:23;8.07;;;1.92;;
11247;SDS011;5681;53.316;13.950;2022-07-11T09:04:50;2.63;;;0.98;;
11247;SDS011;5681;53.316;13.950;2022-07-11T09:07:18;5.72;;;1.10;;
11247;SDS011;5681;53.316;13.950;2022-07-11T09:09:45;3.92;;;1.02;;
11247;SDS011;5681;53.316;13.950;2022-07-11T09:12:12;2.35;;;0.90;;
11247;SDS011;5681;53.316;13.950;2022-07-11T09:14:44;4.07;;;1.05;;
11247;SDS011;5681;53.316;13.950;2022-07-11T09:17:11;2.72;;;0.80;;
11247;SDS011;5681;53.316;13.950;2022-07-11T09:19:38;4.15;;;0.90;;
11247;SDS011;5681;53.316;13.950;2022-07-11T09:22:05;2.47;;;0.80;;
11247;SDS011;5681;53.316;13.950;2022-07-11T09:24:56;4.07;;;0.90;;
11247;SDS011;5681;53.316;13.950;2022-07-11T09:27:41;4.82;;;1.20;;
11247;SDS011;5681;53.316;13.950;2022-07-11T09:30:15;2.42;;;0.90;;
11247;SDS011;5681;53.316;13.950;2022-07-11T09:32:50;3.88;;;1.20;;
11247;SDS011;5681;53.316;13.950;2022-07-11T09:35:18;3.35;;;1.10;;
11247;SDS011;5681;53.316;13.950;2022-07-11T09:37:44;2.85;;;0.90;;
11247;SDS011;5681;53.316;13.950;2022-07-11T09:40:12;3.10;;;1.05;;
11247;SDS011;5681;53.316;13.950;2022-07-11T09:42:46;2.35;;;0.80;;
11247;SDS011;5681;53.316;13.950;2022-07-11T09:45:13;5.47;;;1.20;;
11247;SDS011;5681;53.316;13.950;2022-07-11T09:47:44;3.97;;;1.13;;
11247;SDS011;5681;53.316;13.950;2022-07-11T09:50:12;4.22;;;1.15;;
11247;SDS011;5681;53.316;13.950;2022-07-11T09:52:41;2.45;;;0.80;;
11247;SDS011;5681;53.316;13.950;2022-07-11T09:55:09;2.00;;;0.80;;
11247;SDS011;5681;53.316;13.950;2022-07-11T09:57:37;6.20;;;1.33;;
11247;SDS011;5681;53.316;13.950;2022-07-11T10:00:04;2.72;;;0.88;;
11247;SDS011;5681;53.316;13.950;2022-07-11T10:02:32;4.90;;;1.00;;
11247;SDS011;5681;53.316;13.950;2022-07-11T10:04:59;3.40;;;0.93;;
11247;SDS011;5681;53.316;13.950;2022-07-11T10:07:26;1.33;;;0.65;;
11247;SDS011;5681;53.316;13.950;2022-07-11T10:09:52;3.08;;;0.80;;
11247;SDS011;5681;53.316;13.950;2022-07-11T10:12:19;5.70;;;1.00;;
11247;SDS011;5681;53.316;13.950;2022-07-11T10:14:47;3.42;;;0.90;;
11247;SDS011;5681;53.316;13.950;2022-07-11T10:17:15;1.70;;;0.55;;
11247;SDS011;5681;53.316;13.950;2022-07-11T10:19:46;2.08;;;0.80;;
11247;SDS011;5681;53.316;13.950;2022-07-11T10:22:17;3.10;;;0.80;;
11247;SDS011;5681;53.316;13.950;2022-07-11T10:24:50;4.47;;;0.85;;
11247;SDS011;5681;53.316;13.950;2022-07-11T10:27:21;1.65;;;0.57;;
11247;SDS011;5681;53.316;13.950;2022-07-11T10:29:55;4.95;;;0.80;;
11247;SDS011;5681;53.316;13.950;2022-07-11T10:32:21;4.32;;;1.00;;
11247;SDS011;5681;53.316;13.950;2022-07-11T10:37:45;12.57;;;1.10;;
11247;SDS011;5681;53.316;13.950;2022-07-11T10:40:13;6.65;;;0.85;;
11247;SDS011;5681;53.316;13.950;2022-07-11T10:42:40;1.80;;;0.68;;
11247;SDS011;5681;53.316;13.950;2022-07-11T10:45:09;1.67;;;0.60;;
11247;SDS011;5681;53.316;13.950;2022-07-11T10:47:41;2.53;;;0.80;;
11247;SDS011;5681;53.316;13.950;2022-07-11T10:50:13;1.98;;;0.77;;
11247;SDS011;5681;53.316;13.950;2022-07-11T10:52:44;4.05;;;0.98;;
11247;SDS011;5681;53.316;13.950;2022-07-11T10:55:26;2.10;;;0.70;;
11247;SDS011;5681;53.316;13.950;2022-07-11T10:58:00;1.83;;;0.55;;
11247;SDS011;5681;53.316;13.950;2022-07-11T11:00:31;2.90;;;0.60;;
11247;SDS011;5681;53.316;13.950;2022-07-11T11:02:59;2.35;;;0.60;;
11247;SDS011;5681;53.316;13.950;2022-07-11T11:05:42;1.45;;;0.47;;
11247;SDS011;5681;53.316;13.950;2022-07-11T11:16:54;1.67;;;0.77;;
11247;SDS011;5681;53.316;13.950;2022-07-11T11:22:19;3.42;;;1.08;;
11247;SDS011;5681;53.316;13.950;2022-07-11T11:24:48;4.05;;;0.55;;
11247;SDS011;5681;53.316;13.950;2022-07-11T11:27:17;2.30;;;0.88;;
11247;SDS011;5681;53.316;13.950;2022-07-11T11:29:46;0.65;;;0.38;;
11247;SDS011;5681;53.316;13.950;2022-07-11T11:32:15;9.27;;;0.80;;
11247;SDS011;5681;53.316;13.950;2022-07-11T11:34:41;6.15;;;0.77;;
11247;SDS011;5681;53.316;13.950;2022-07-11T11:37:07;4.47;;;0.50;;
11247;SDS011;5681;53.316;13.950;2022-07-11T11:39:34;3.25;;;0.60;;
11247;SDS011;5681;53.316;13.950;2022-07-11T11:42:04;1.90;;;0.52;;
11247;SDS011;5681;53.316;13.950;2022-07-11T11:44:32;2.97;;;0.65;;
11247;SDS011;5681;53.316;13.950;2022-07-11T11:46:58;3.70;;;0.60;;
11247;SDS011;5681;53.316;13.950;2022-07-11T11:49:26;2.03;;;0.43;;
11247;SDS011;5681;53.316;13.950;2022-07-11T11:51:53;0.98;;;0.43;;
11247;SDS011;5681;53.316;13.950;2022-07-11T11:54:20;0.47;;;0.40;;
11247;SDS011;5681;53.316;13.950;2022-07-11T11:56:48;1.52;;;0.40;;
11247;SDS011;5681;53.316;13.950;2022-07-11T11:59:14;7.72;;;1.02;;
11247;SDS011;5681;53.316;13.950;2022-07-11T12:01:42;2.90;;;0.40;;
11247;SDS011;5681;53.316;13.950;2022-07-11T12:04:10;3.65;;;0.50;;
11247;SDS011;5681;53.316;13.950;2022-07-11T12:06:38;1.42;;;0.55;;
11247;SDS011;5681;53.316;13.950;2022-07-11T12:09:07;2.35;;;0.50;;
11247;SDS011;5681;53.316;13.950;2022-07-11T12:11:35;1.73;;;0.80;;
11247;SDS011;5681;53.316;13.950;2022-07-11T12:14:03;3.67;;;0.65;;
11247;SDS011;5681;53.316;13.950;2022-07-11T12:16:30;1.73;;;0.40;;
11247;SDS011;5681;53.316;13.950;2022-07-11T12:19:07;2.95;;;0.52;;
11247;SDS011;5681;53.316;13.950;2022-07-11T12:21:38;1.77;;;0.60;;
11247;SDS011;5681;53.316;13.950;2022-07-11T12:24:05;1.25;;;0.47;;
11247;SDS011;5681;53.316;13.950;2022-07-11T12:26:34;1.13;;;0.57;;
11247;SDS011;5681;53.316;13.950;2022-07-11T12:29:05;4.72;;;0.75;;
11247;SDS011;5681;53.316;13.950;2022-07-11T12:31:47;3.40;;;0.77;;
11247;SDS011;5681;53.316;13.950;2022-07-11T12:34:15;3.38;;;0.70;;
11247;SDS011;5681;53.316;13.950;2022-07-11T12:36:43;2.03;;;0.57;;
11247;SDS011;5681;53.316;13.950;2022-07-11T12:39:20;4.15;;;0.65;;
11247;SDS011;5681;53.316;13.950;2022-07-11T12:41:48;5.22;;;0.93;;
11247;SDS011;5681;53.316;13.950;2022-07-11T12:44:20;8.30;;;0.80;;
11247;SDS011;5681;53.316;13.950;2022-07-11T12:47:04;5.10;;;0.70;;
11247;SDS011;5681;53.316;13.950;2022-07-11T12:49:31;3.85;;;0.88;;
11247;SDS011;5681;53.316;13.950;2022-07-11T12:51:59;6.32;;;0.77;;
11247;SDS011;5681;53.316;13.950;2022-07-11T12:54:28;1.98;;;0.63;;
11247;SDS011;5681;53.316;13.950;2022-07-11T12:56:56;4.38;;;0.80;;
11247;SDS011;5681;53.316;13.950;2022-07-11T12:59:23;1.77;;;0.63;;
11247;SDS011;5681;53.316;13.950;2022-07-11T13:01:54;2.58;;;0.60;;
11247;SDS011;5681;53.316;13.950;2022-07-11T13:04:28;1.92;;;0.77;;
11247;SDS011;5681;53.316;13.950;2022-07-11T13:10:17;1.70;;;0.70;;
11247;SDS011;5681;53.316;13.950;2022-07-11T13:12:45;1.13;;;0.60;;
11247;SDS011;5681;53.316;13.950;2022-07-11T13:15:12;2.92;;;0.60;;
11247;SDS011;5681;53.316;13.950;2022-07-11T13:17:42;1.33;;;0.60;;
11247;SDS011;5681;53.316;13.950;2022-07-11T13:20:11;1.13;;;0.60;;
11247;SDS011;5681;53.316;13.950;2022-07-11T13:22:39;2.05;;;0.73;;
11247;SDS011;5681;53.316;13.950;2022-07-11T13:25:06;2.53;;;0.60;;
11247;SDS011;5681;53.316;13.950;2022-07-11T13:27:34;2.63;;;0.85;;
11247;SDS011;5681;53.316;13.950;2022-07-11T13:30:01;5.38;;;0.70;;
11247;SDS011;5681;53.316;13.950;2022-07-11T13:32:35;1.38;;;0.52;;
11247;SDS011;5681;53.316;13.950;2022-07-11T13:35:02;1.42;;;0.40;;
11247;SDS011;5681;53.316;13.950;2022-07-11T13:37:29;1.23;;;0.45;;
11247;SDS011;5681;53.316;13.950;2022-07-11T13:39:55;1.95;;;0.52;;
11247;SDS011;5681;53.316;13.950;2022-07-11T13:42:21;1.98;;;0.35;;
11247;SDS011;5681;53.316;13.950;2022-07-11T13:44:49;2.15;;;0.60;;
11247;SDS011;5681;53.316;13.950;2022-07-11T13:47:15;1.15;;;0.45;;
11247;SDS011;5681;53.316;13.950;2022-07-11T13:49:42;5.47;;;0.98;;
11247;SDS011;5681;53.316;13.950;2022-07-11T13:52:08;2.20;;;0.50;;
11247;SDS011;5681;53.316;13.950;2022-07-11T13:54:36;2.00;;;0.40;;
11247;SDS011;5681;53.316;13.950;2022-07-11T13:57:03;1.27;;;0.50;;
11247;SDS011;5681;53.316;13.950;2022-07-11T13:59:30;4.72;;;0.70;;
11247;SDS011;5681;53.316;13.950;2022-07-11T14:01:58;1.60;;;0.70;;
11247;SDS011;5681;53.316;13.950;2022-07-11T14:04:24;2.17;;;0.65;;
11247;SDS011;5681;53.316;13.950;2022-07-11T14:06:51;4.68;;;1.02;;
11247;SDS011;5681;53.316;13.950;2022-07-11T14:09:18;1.20;;;0.50;;
11247;SDS011;5681;53.316;13.950;2022-07-11T14:11:44;3.05;;;0.63;;
11247;SDS011;5681;53.316;13.950;2022-07-11T14:14:10;11.38;;;1.42;;
11247;SDS011;5681;53.316;13.950;2022-07-11T14:16:37;4.22;;;0.60;;
11247;SDS011;5681;53.316;13.950;2022-07-11T14:19:05;5.53;;;0.63;;
11247;SDS011;5681;53.316;13.950;2022-07-11T14:21:32;2.22;;;0.43;;
11247;SDS011;5681;53.316;13.950;2022-07-11T14:23:59;2.85;;;0.50;;
11247;SDS011;5681;53.316;13.950;2022-07-11T14:26:25;1.30;;;0.43;;
11247;SDS011;5681;53.316;13.950;2022-07-11T14:28:52;1.63;;;0.40;;
11247;SDS011;5681;53.316;13.950;2022-07-11T14:31:18;0.65;;;0.38;;
11247;SDS011;5681;53.316;13.950;2022-07-11T14:33:47;0.60;;;0.30;;
11247;SDS011;5681;53.316;13.950;2022-07-11T14:36:15;2.60;;;0.52;;
11247;SDS011;5681;53.316;13.950;2022-07-11T14:38:42;4.72;;;0.50;;
11247;SDS011;5681;53.316;13.950;2022-07-11T14:41:09;2.67;;;0.60;;
11247;SDS011;5681;53.316;13.950;2022-07-11T14:43:36;1.40;;;0.50;;
11247;SDS011;5681;53.316;13.950;2022-07-11T14:46:02;6.03;;;0.68;;
11247;SDS011;5681;53.316;13.950;2022-07-11T14:48:29;4.18;;;0.50;;
11247;SDS011;5681;53.316;13.950;2022-07-11T14:50:55;1.42;;;0.47;;
11247;SDS011;5681;53.316;13.950;2022-07-11T14:53:23;1.13;;;0.50;;
11247;SDS011;5681;53.316;13.950;2022-07-11T14:55:50;1.10;;;0.35;;
11247;SDS011;5681;53.316;13.950;2022-07-11T14:58:16;2.42;;;0.30;;
11247;SDS011;5681;53.316;13.950;2022-07-11T15:00:43;2.60;;;0.50;;
11247;SDS011;5681;53.316;13.950;2022-07-11T15:03:09;1.58;;;0.60;;
11247;SDS011;5681;53.316;13.950;2022-07-11T15:05:53;5.85;;;0.50;;